Weather observations for the past three days for
Natchitoches, Natchitoches Regional Airport
Metric (Imperial)
Date Time (cdt) Wind (kph) Vis. (km) Weather Sky Cond. Temperature (ºC) Relative Humidity Wind Chill (°C) Heat Index (°C) Pressure Precipitation (cm)
Air Dwpt 6 hour altimeter (cm) sea level (mb) 1 hr 3 hr 6 hr
Max. Min.
04 04:55 Calm 16.09 Fair CLR 13.1 9.6 80% 76.25 0.0
04 04:35 Calm 16.09 Fair CLR 13.5 9.6 77% 76.25 0.0
04 04:15 Calm 16.09 Fair CLR 13.4 9.7 78% 76.23 0.0
04 03:55 Calm 16.09 Fair CLR 13.6 9.8 78% 76.23 0.0
04 03:35 Calm 16.09 Fair CLR 14 10 77% 76.25 0.0
04 03:15 Calm 16.09 Fair CLR 14.1 10.1 77% 76.25 0.0
04 02:55 Calm 16.09 Fair CLR 14.5 10.1 75% 76.25 0.0
04 02:35 Calm 16.09 Fair CLR 14.6 10.1 75% 76.28 0.0
04 02:15 Calm 16.09 Fair CLR 14.8 10.3 75% 76.3 0.0
04 01:55 Calm 16.09 Fair CLR 14.9 10.3 74% 76.33 0.0
04 01:15 Calm 16.09 Fair CLR 15.3 10.4 73% 76.35 0.0
04 00:55 Calm 16.09 Fair CLR 15.7 10.5 24.4 13.6 71% 76.35 0.0
04 00:35 Calm 16.09 Fair CLR 16.1 10.5 70% 76.35 0.0
04 00:15 Calm 16.09 Fair CLR 16.3 10.8 70% 76.35 0.0
03 23:55 Calm 16.09 Fair CLR 16.2 11 71% 76.35 0.0
03 23:35 Calm 16.09 Fair CLR 13.9 13.2 96% 76.35 0.0
03 23:15 Calm 16.09 Fair CLR 14 13.4 96% 76.35 0.0
03 22:55 Calm 16.09 Fair CLR 13.9 13.5 97% 76.35 0.0
03 22:35 Calm 16.09 Fair CLR 14.5 13.7 95% 76.38 0.0
03 22:15 Calm 16.09 Fair CLR 14.2 13.2 94% 76.38 0.0
03 21:55 Calm 16.09 Fair CLR 15.2 13.3 89% 76.35 0.0
03 21:35 Calm 16.09 Fair CLR 16 13.2 84% 76.35 0.0
03 21:15 Calm 16.09 Fair CLR 16.3 13.1 81% 76.33 0.0
03 20:55 Calm 16.09 Fair CLR 16.8 13 78% 76.33 0.0
03 20:35 Calm 16.09 Fair CLR 16.7 13 79% 76.33 0.0
03 20:15 Calm 16.09 Fair CLR 17.8 12.7 72% 76.3 0.0
03 19:55 Calm 16.09 Fair CLR 21.3 11.5 54% 76.28 0.0
03 19:35 Calm 16.09 Fair CLR 22.6 10.9 48% 76.3 0.0
03 19:15 Calm 16.09 Fair CLR 23.7 10.5 43% 76.3 0.0
03 18:55 Calm 16.09 Fair CLR 24.5 10 26.3 23.9 40% 25 76.3 0.0
03 18:35 Calm 16.09 Partly Cloudy SCT080 25.1 9.7 38% 26 76.33 0.0
03 18:15 Calm 16.09 Overcast OVC080 25.5 10 38% 26 76.33 0.0
03 17:55 Calm 16.09 Mostly Cloudy BKN080 25.7 8.8 34% 26 76.33 0.0
03 17:35 Calm 16.09 Partly Cloudy SCT080 25.5 8.9 35% 26 76.35 0.0
03 17:15 Calm 16.09 Fair CLR 24 11.7 46% 25 76.35 0.0
03 16:55 Calm 16.09 Partly Cloudy SCT070 24.8 9.5 38% 26 76.38 0.0
03 16:35 Calm 16.09 Partly Cloudy SCT070 25.7 9.6 36% 26 76.4 0.0
03 16:15 Calm 16.09 Partly Cloudy SCT080 25.9 9.5 36% 26 76.4 0.0
03 15:55 Calm 16.09 Mostly Cloudy BKN070 26.3 9.5 35% 26 76.43 0.0
03 15:35 Calm 16.09 Mostly Cloudy BKN070 25.9 10.2 37% 26 76.45 0.0
03 15:15 Calm 16.09 Partly Cloudy SCT070 25.8 9.5 36% 26 76.48 0.0
03 14:55 Calm 16.09 Partly Cloudy SCT070 25.3 9.4 37% 26 76.5 0.0
03 14:35 Calm 16.09 Partly Cloudy SCT070 25.6 10.2 38% 26 76.53 0.0
03 14:15 N 7 16.09 Fair CLR 25.1 9.6 38% 26 76.56 0.0
03 13:55 Calm 16.09 Fair CLR 24.9 8.9 36% 26 76.58 0.0
03 13:35 Calm 16.09 Fair CLR 24.7 9.4 38% 26 76.61 0.0
03 13:15 NW 11 16.09 Fair CLR 24.7 10 40% 26 76.61 0.0
03 12:55 Calm 16.09 Fair CLR 24.7 10 24.8 8.2 40% 26 76.63 0.0
03 12:35 Calm 16.09 Partly Cloudy SCT065 24.2 9 38% 25 76.66 0.0
03 12:15 Calm 16.09 Fair CLR 24.3 8 35% 25 76.68 0.0
03 11:55 Calm 16.09 Fair CLR 23.9 9.3 40% 25 76.68 0.0
03 11:35 Calm 16.09 Fair CLR 23.4 9.6 42% 76.68 0.0
03 11:15 Calm 16.09 Fair CLR 23.1 9.7 43% 76.71 0.0
03 10:55 Calm 16.09 Fair CLR 22.7 10.7 47% 76.71 0.0
03 10:35 W 9 16.09 Fair CLR 21.8 10.6 49% 76.71 0.0
03 10:15 Calm 16.09 Fair CLR 21.1 10.4 51% 76.71 0.0
03 09:55 Calm 16.09 Fair CLR 20.5 10.6 53% 76.73 0.0
03 09:35 Calm 16.09 Partly Cloudy SCT085 19.5 10.1 55% 76.73 0.0
03 09:15 SW 6 16.09 Partly Cloudy SCT085 18.6 9.5 56% 76.73 0.0
03 08:55 Calm 16.09 Partly Cloudy SCT090 17.4 10.6 65% 76.73 0.0
03 08:35 Calm 16.09 Partly Cloudy SCT090 15.5 11.2 76% 76.73 0.0
03 08:15 Calm 16.09 Mostly Cloudy BKN080 14 12 88% 76.71 0.0
03 07:55 Calm 16.09 Mostly Cloudy BKN080 12.2 12.1 99% 76.71 0.0
03 07:35 Calm 16.09 Mostly Cloudy BKN080 10.6 10.6 100% 76.68 0.0
03 07:15 Calm 16.09 Fair CLR 9 9 100% 76.68 0.0
03 06:55 Calm 16.09 Fair CLR 8 8 10.5 7.7 100% 76.66 0.0
03 06:35 Calm 16.09 Fair CLR 8.2 8.2 100% 76.63 0.0
03 06:15 Calm 11.27 Fair CLR 8 8 100% 76.61 0.0
03 05:55 Calm 16.09 Fair CLR 8.2 8.2 100% 76.58 0.0
03 05:35 Calm 16.09 Fair CLR 8.5 8.5 100% 76.58 0.0
03 05:15 Calm 4.02 Fog/Mist CLR 8.3 8.3 100% 76.58 0.0
03 04:55 Calm 11.27 Fair CLR 8.6 8.6 100% 76.56 0.0
03 04:35 Calm 16.09 Fair CLR 8.6 8.6 100% 76.58 0.0
03 04:15 Calm 11.27 Fair CLR 8.3 8.3 100% 76.56 0.0
03 03:55 Calm 16.09 Fair CLR 8.8 8.8 100% 76.56 0.0
03 03:35 Calm 16.09 Fair CLR 9.1 9.1 100% 76.56 0.0
03 03:15 Calm 16.09 Fair CLR 9 9 100% 76.56 0.0
03 02:55 Calm 16.09 Fair CLR 9.7 9.7 100% 76.53 0.0
03 02:35 Calm 16.09 Fair CLR 9.5 9.5 100% 76.53 0.0
03 02:15 Calm 16.09 Fair CLR 9 9 100% 76.53 0.0
03 01:55 Calm 16.09 Fair CLR 9.6 9.6 100% 76.53 0.0
03 01:35 Calm 16.09 Fair CLR 10.3 10.3 100% 76.53 0.0
03 01:15 Calm 16.09 Fair CLR 10.3 10.3 100% 76.53 0.0
03 00:55 Calm 16.09 Fair CLR 10.5 10.5 21.5 10.4 100% 76.53 0.0
03 00:35 Calm 16.09 Fair CLR 10.7 10.7 100% 76.56 0.0
03 00:15 Calm 16.09 Fair CLR 11 11 100% 76.53 0.0
02 23:55 Calm 16.09 Fair CLR 10.8 10.8 100% 76.53 0.0
02 23:35 Calm 16.09 Fair CLR 11.4 11.4 100% 76.56 0.0
02 23:15 Calm 16.09 Fair CLR 11.5 11.5 100% 76.53 0.0
02 22:55 Calm 16.09 Fair CLR 11.5 11.5 100% 76.53 0.0
02 22:35 Calm 16.09 Fair CLR 11.5 11.3 99% 76.53 0.0
02 22:15 Calm 16.09 Fair CLR 11.8 11.3 97% 76.53 0.0
02 21:55 Calm 16.09 Fair CLR 12.5 12.1 97% 76.5 0.0
02 21:35 Calm 16.09 Fair CLR 12.6 12.1 97% 76.48 0.0
02 21:15 Calm 16.09 Fair CLR 13 12 94% 76.48 0.0
02 20:55 Calm 16.09 Fair CLR 14.8 11.3 80% 76.45 0.0
02 20:35 Calm 16.09 Fair CLR 14.3 11 81% 76.45 0.0
02 20:15 Calm 16.09 Fair CLR 16.2 10.2 68% 76.43 0.0
02 19:55 Calm 16.09 Fair CLR 16.9 10.9 68% 76.43 0.0
02 19:35 Calm 16.09 Fair CLR 19.7 9.4 52% 76.4 0.0
02 19:15 Calm 16.09 Fair CLR 20.8 7.6 43% 76.4 0.0
02 18:55 Calm 16.09 Fair CLR 21.6 7.5 23.5 21 40% 76.4 0.0
02 18:35 N 11 16.09 Fair CLR 22.1 6.5 37% 76.38 0.0
02 18:15 NW 13 16.09 Fair CLR 22.5 6.8 36% 76.38 0.0
02 17:55 N 15 16.09 Fair CLR 22.8 6.4 35% 76.38 0.0
02 17:35 N 15 16.09 Fair CLR 22.3 5.7 34% 76.38 0.0
02 17:15 NW 19 G 28 16.09 Fair CLR 23.1 6.4 34% 76.35 0.0
02 16:55 N 17 G 30 16.09 Fair CLR 23.1 6 33% 76.38 0.0
02 16:35 N 13 16.09 Fair CLR 23.2 6.4 34% 76.38 0.0
02 16:15 NE 13 16.09 Fair CLR 23.5 6.6 34% 76.38 0.0
02 15:55 NE 11 16.09 Fair CLR 23.1 5.9 33% 76.4 0.0
02 15:35 NE 13 16.09 Fair CLR 22.8 5.2 32% 76.43 0.0
02 15:15 Calm 16.09 Fair CLR 23 6.5 35% 76.43 0.0
02 14:55 N 15 16.09 Fair CLR 22.6 6.1 34% 76.45 0.0
02 14:35 N 17 16.09 Fair CLR 22.1 5.7 35% 76.48 0.0
02 14:15 N 13 16.09 Fair CLR 22.3 6.3 36% 76.48 0.0
02 13:55 N 11 16.09 Fair CLR 22 6.3 36% 76.5 0.0
02 13:35 Calm 16.09 Fair CLR 21.5 5.6 36% 76.5 0.0
02 13:15 NE 13 16.09 Fair CLR 21.5 5.5 35% 76.53 0.0
02 12:55 NE 19 16.09 Fair CLR 21.2 4.8 21.4 11.6 34% 76.56 0.0
02 12:35 NE 9 16.09 Fair CLR 21 5.7 37% 76.56 0.0
02 12:15 NE 11 16.09 Fair CLR 20.5 5.3 37% 76.58 0.0
02 11:55 N 17 16.09 Fair CLR 20.5 5.7 38% 76.58 0.0
02 11:35 N 15 16.09 Fair CLR 19.9 6.4 42% 76.58 0.0
02 11:15 N 17 16.09 Fair CLR 19.6 6.2 42% 76.58 0.0
02 10:55 N 11 16.09 Fair CLR 19.3 7.5 47% 76.58 0.0
02 10:35 NE 15 16.09 Fair CLR 18.8 7.8 49% 76.58 0.0
02 10:15 N 15 16.09 Fair CLR 17.8 8.6 55% 76.56 0.0
02 09:55 Calm 16.09 Fair CLR 17.4 9.7 61% 76.56 0.0
02 09:35 Calm 16.09 Fair CLR 16.9 10 64% 76.56 0.0
02 09:15 N 15 16.09 Fair CLR 16.2 10.2 68% 76.53 0.0
02 08:55 N 13 16.09 Fair CLR 15.4 10.2 71% 76.5 0.0
02 08:35 Calm 16.09 Fair CLR 14.6 10.5 77% 76.48 0.0
02 08:15 Calm 16.09 Fair CLR 13.9 10.9 82% 76.45 0.0
02 07:55 Calm 16.09 Fair CLR 12.5 11.9 96% 76.43 0.0
02 07:35 Calm 16.09 Fair CLR 12.1 12.1 100% 76.4 0.0
02 07:15 Calm 16.09 Fair CLR 11.8 11.8 100% 76.4 0.0
02 06:55 Calm 16.09 Fair CLR 11.5 11.5 12.6 11.2 100% 76.38 0.0
02 06:35 Calm 16.09 Fair CLR 11.5 11.5 100% 76.35 0.0
02 06:15 Calm 16.09 Fair CLR 11.2 11.2 100% 76.35 0.0
02 05:55 Calm 16.09 Fair CLR 11.5 11.5 100% 76.3 0.0
02 05:35 Calm 16.09 Partly Cloudy SCT110 11.3 11.3 100% 76.28 0.0
02 05:15 Calm 16.09 Partly Cloudy SCT120 11.6 11.6 100% 76.28 0.0
02 04:55 Calm 16.09 Fair CLR 11.5 11.5 100% 76.28 0.0
02 04:35 Calm 16.09 Fair CLR 11.9 11.9 100% 76.28 0.0
02 04:15 Calm 16.09 Partly Cloudy SCT120 12 12 100% 76.28 0.0
02 03:55 Calm 16.09 Mostly Cloudy BKN120 12.1 12.1 100% 76.25 0.0
02 03:35 Calm 16.09 Partly Cloudy SCT110 12.3 12.3 100% 76.25 0.0
02 03:15 N 6 16.09 Overcast SCT085 OVC110 12.6 12.6 100% 76.25 0.0
02 02:55 Calm 16.09 Overcast BKN075 OVC110 12.5 12.5 100% 76.25 0.0
02 02:35 Calm 16.09 Overcast BKN075 OVC100 12.5 12.5 100% 76.23 0.0
02 02:15 Calm 16.09 Overcast SCT004 BKN075 OVC100 12.5 12.5 100% 76.25 0.0
02 01:55 Calm 16.09 Overcast BKN004 OVC065 12.3 12.3 100% 76.25 0.0
02 01:35 Calm 16.09 Overcast BKN004 BKN065 OVC095 12.3 12.3 100% 76.25 0.0
02 01:15 Calm 16.09 Overcast BKN004 OVC065 12.3 12.3 100% 76.25 0.0
02 00:55 Calm 16.09 Overcast SCT004 OVC065 12.3 12.3 12.6 11.2 100% 76.28 0.0
02 00:35 Calm 16.09 Overcast BKN004 OVC065 12.3 12.3 100% 76.28 0.0
02 00:15 Calm 16.09 Overcast BKN004 OVC065 12.5 12.5 100% 76.3 0.0
01 23:55 Calm 16.09 Overcast OVC055 12.4 12.4 100% 76.3 0.0
01 23:35 Calm 16.09 Overcast OVC055 12.4 12.4 100% 76.28 0.0
01 23:15 Calm 16.09 Light Drizzle SCT006 SCT013 OVC055 12.6 12.6 100% 76.28 0.0
01 22:55 Calm 16.09 Overcast OVC006 12.5 12.5 100% 76.33 0.0
01 22:35 Calm 16.09 Light Drizzle OVC006 12.5 12.5 100% 76.3 0.0
01 22:15 Calm 16.09 Light Rain SCT008 BKN012 OVC044 12.2 12.2 100% 76.28 0.0
01 21:55 Calm 16.09 Light Rain SCT014 OVC042 12 12 100% 76.28 0.0
01 21:35 Calm 16.09 Rain SCT014 OVC040 11.8 11.8 100% 76.3 0.0
01 21:15 Calm 16.09 Light Drizzle SCT014 SCT020 OVC040 12 12 100% 76.23 0.0
01 20:55 Calm 16.09 Light Rain BKN014 OVC020 11.7 11.7 100% 76.2 0.0
01 20:35 Calm 16.09 Overcast BKN016 OVC024 11.5 11.5 100% 76.2 0.0
01 20:15 Calm 16.09 Drizzle SCT012 BKN025 OVC035 11.5 11.5 100% 76.1 0.0
01 19:55 Calm 16.09 Drizzle SCT035 BKN047 BKN070 11.4 11.4 100% 76.1 0.0
01 19:35 E 6 16.09 Light Rain SCT033 BKN049 OVC090 11.2 11.2 100% 76.1 0.0
01 19:15 E 17 G 30 8.05 Light Rain SCT040 SCT070 OVC080 11.3 11.3 100% 76.15 0.0
01 18:55 E 20 G 31 8.05 Rain SCT016 BKN027 OVC075 12 12 12.8 11.9 100% 76.15 0.0
01 18:35 Calm 11.27 Light Rain SCT006 BKN017 OVC025 12.5 12.5 100% 76.15 0.0
01 18:15 Calm 8.05 Light Rain SCT006 OVC014 12.5 12.5 100% 76.15 0.0
01 17:55 Calm 8.05 Rain OVC019 12.5 12.5 100% 76.12 0.0
01 17:35 Calm 11.27 Light Rain OVC018 12.5 12.5 100% 76.15 0.0
01 17:15 Calm 11.27 Drizzle OVC019 12.5 12.5 100% 76.1 0.0
01 16:55 Calm 11.27 Rain OVC017 12.7 11.8 94% 76.1 0.0
01 16:35 Calm 16.09 Drizzle OVC019 12.3 11.9 97% 76.07 0.0
01 16:15 NE 17 16.09 Overcast OVC017 12.5 11.6 94% 75.97 0.0
01 15:55 E 17 G 31 16.09 Light Rain BKN015 OVC020 12.7 12.2 97% 75.92 0.0
01 15:35 E 20 G 33 16.09 Light Drizzle OVC013 12.7 12.5 99% 75.9 0.0
01 15:15 E 22 G 35 16.09 Overcast OVC011 12.5 12.5 100% 75.92 0.0
01 14:55 NE 22 G 31 16.09 Overcast BKN011 OVC017 12.5 12.5 100% 75.97 0.0
01 14:35 NE 22 16.09 Light Drizzle BKN013 OVC050 12.6 12.6 100% 76.05 0.0
01 14:15 E 19 16.09 Light Rain SCT014 BKN030 OVC050 12.3 12.3 100% 76.15 0.0
01 13:55 E 19 G 26 16.09 Drizzle SCT011 SCT016 OVC029 12.2 12.2 100% 76.17 0.0
01 13:35 NE 15 G 26 16.09 Drizzle SCT014 SCT024 OVC029 12 12 100% 76.2 0.0
01 13:15 NE 20 G 33 16.09 Drizzle SCT008 OVC014 12 12 100% 76.23 0.0
01 12:55 NE 15 G 30 16.09 Light Rain BKN010 OVC018 12.4 12.4 14.5 12.4 100% 76.23 0.0
01 12:35 NE 11 G 26 11.27 Light Rain BKN008 OVC015 12.5 12.5 100% 76.23 0.0
01 12:15 NE 11 11.27 Rain BKN008 BKN011 OVC018 12.6 12.6 100% 76.23 0.0
01 11:55 NE 13 11.27 Rain BKN008 OVC011 12.8 12.8 100% 76.25 0.0
01 11:35 NE 13 8.05 Rain OVC008 12.7 12.7 100% 76.28 0.0
01 11:15 Calm 11.27 Rain OVC008 13 13 100% 76.28 0.0
01 10:55 N 6 11.27 Rain OVC008 13 13 100% 76.23 0.0
01 10:35 NE 7 G 26 11.27 Rain BKN009 BKN014 OVC075 13.1 13.1 100% 76.2 0.0
01 10:15 NE 13 8.05 Rain BKN009 OVC014 13 13 100% 76.23 0.0
01 09:55 NE 11 8.05 Rain OVC009 13.1 13.1 100% 76.2 0.0
01 09:35 NE 13 11.27 Light Rain OVC008 13.1 13.1 100% 76.23 0.0
01 09:15 NE 11 8.05 Rain BKN008 OVC029 13.3 13.3 100% 76.2 0.0
01 08:55 NE 13 8.05 Rain OVC031 13.5 13.5 100% 76.2 0.0
01 08:35 Calm 8.05 Rain SCT009 OVC027 13.6 13.6 100% 76.17 0.0
01 08:15 Calm 11.27 Rain SCT009 OVC025 13.7 13.7 100% 76.2 0.0
01 07:55 Calm 8.05 Light Rain SCT009 OVC025 14 14 100% 76.2 0.0
01 07:35 Calm 11.27 Light Rain OVC025 14.4 13.8 96% 76.17 0.0
01 07:15 Calm 16.09 Rain OVC025 14.5 13.5 94% 76.17 0.0
01 06:55 Calm 16.09 Drizzle OVC025 14.5 13.9 14.8 14.3 96% 76.12 0.0
01 06:35 Calm 16.09 Light Drizzle OVC023 14.5 14 97% 76.1 0.0
01 06:15 Calm 16.09 Overcast OVC023 14.6 14.1 97% 76.1 0.0
01 05:55 Calm 16.09 Overcast OVC021 14.5 14 97% 76.07 0.0
01 05:35 Calm 16.09 Overcast OVC021 14.6 13.9 96% 76.05 0.0
01 05:15 N 11 16.09 Overcast OVC021 14.7 13.8 94% 76.02 0.0
Date Time (cdt) Wind (kph) Vis. (km) Weather Sky Cond. Air Dwpt Max. Min. Relative Humidity Wind Chill (°C) Heat Index (°C) altimeter (cm) sea level (mb) 1 hr 3 hr 6 hr
6 hour
Temperature (ºC) Pressure Precipitation (cm)